createdAt,value
2022-11-08T00:02:22.191Z,96215.31
2022-11-08T00:04:48.743Z,96225.13
2022-11-08T00:07:34.675Z,96223.47
2022-11-08T00:10:19.425Z,96219.34
2022-11-08T00:13:05.153Z,96209.06
2022-11-08T00:15:38.178Z,96205.41
2022-11-08T00:18:06.387Z,96199.66
2022-11-08T00:20:32.914Z,96200.81
2022-11-08T00:22:59.347Z,96195.59
2022-11-08T00:25:26.118Z,96184.59
2022-11-08T00:27:52.546Z,96187.03
2022-11-08T00:30:19.052Z,96180.50
2022-11-08T00:32:46.055Z,96186.06
2022-11-08T00:35:12.531Z,96181.13
2022-11-08T00:37:38.952Z,96185.03
2022-11-08T00:40:06.477Z,96186.66
2022-11-08T00:42:32.906Z,96183.06
2022-11-08T00:44:59.332Z,96177.97
2022-11-08T00:47:26.343Z,96190.06
2022-11-08T00:49:53.283Z,96179.94
2022-11-08T00:52:19.703Z,96176.81
2022-11-08T00:54:46.622Z,96176.97
2022-11-08T00:57:13.105Z,96174.66
2022-11-08T00:59:39.508Z,96180.72
2022-11-08T01:02:06.095Z,96184.00
2022-11-08T01:04:32.787Z,96190.25
2022-11-08T01:06:59.667Z,96179.47
2022-11-08T01:09:26.119Z,96180.81
2022-11-08T01:11:52.585Z,96176.28
2022-11-08T01:14:19.454Z,96170.09
2022-11-08T01:16:45.754Z,96173.72
2022-11-08T01:19:12.111Z,96173.03
2022-11-08T01:21:38.844Z,96176.47
2022-11-08T01:24:05.760Z,96173.41
2022-11-08T01:26:32.072Z,96168.50
2022-11-08T01:28:59.683Z,96176.81
2022-11-08T01:31:29.409Z,96162.72
2022-11-08T01:33:56.426Z,96163.22
2022-11-08T01:36:24.615Z,96173.00
2022-11-08T01:38:51.652Z,96158.59
2022-11-08T01:41:19.825Z,96157.59
2022-11-08T01:43:51.787Z,96159.56
2022-11-08T01:46:18.177Z,96153.94
2022-11-08T01:49:16.343Z,96153.47
2022-11-08T01:51:46.349Z,96148.22
2022-11-08T01:54:18.379Z,96141.22
2022-11-08T01:56:45.163Z,96138.31
2022-11-08T01:59:14.371Z,96133.84
2022-11-08T02:01:41.801Z,96132.25
2022-11-08T02:04:08.730Z,96132.06
2022-11-08T02:06:39.059Z,96131.88
2022-11-08T02:09:10.629Z,96125.44
2022-11-08T02:11:37.071Z,96119.19
2022-11-08T02:14:05.236Z,96120.41
2022-11-08T02:16:31.622Z,96125.75
2022-11-08T02:18:58.073Z,96110.91
2022-11-08T02:21:41.756Z,96111.63
2022-11-08T02:24:10.520Z,96109.47
2022-11-08T02:26:37.650Z,96107.50
2022-11-08T02:29:30.838Z,96100.88
2022-11-08T02:31:58.558Z,96098.41
2022-11-08T02:34:29.331Z,96094.53
2022-11-08T02:36:56.759Z,96094.25
2022-11-08T02:39:23.828Z,96095.09
2022-11-08T02:41:50.547Z,96094.09
2022-11-08T02:44:16.896Z,96084.94
2022-11-08T02:46:43.207Z,96082.63
2022-11-08T02:49:10.029Z,96088.22
2022-11-08T02:51:36.392Z,96087.31
2022-11-08T02:54:02.781Z,96075.72
2022-11-08T02:56:29.114Z,96072.16
2022-11-08T02:58:55.464Z,96079.78
2022-11-08T03:01:22.511Z,96070.50
2022-11-08T03:03:48.934Z,96072.88
2022-11-08T03:06:15.258Z,96073.72
2022-11-08T03:08:41.962Z,96063.09
2022-11-08T03:11:08.343Z,96075.50
2022-11-08T03:13:34.812Z,96076.34
2022-11-08T03:16:05.899Z,96066.53
2022-11-08T03:18:32.224Z,96070.91
2022-11-08T03:21:01.574Z,96070.94
2022-11-08T03:23:29.284Z,96064.41
2022-11-08T03:25:55.752Z,96065.22
2022-11-08T03:28:23.666Z,96066.56
2022-11-08T03:30:52.445Z,96070.66
2022-11-08T03:33:19.411Z,96068.38
2022-11-08T03:35:46.157Z,96059.88
2022-11-08T03:38:12.873Z,96074.81
2022-11-08T03:40:39.192Z,96073.31
2022-11-08T03:43:05.614Z,96070.22
2022-11-08T03:45:32.580Z,96068.19
2022-11-08T03:47:58.899Z,96074.50
2022-11-08T03:50:25.561Z,96072.22
2022-11-08T03:52:56.408Z,96076.53
2022-11-08T03:55:25.543Z,96069.34
2022-11-08T03:57:52.461Z,96066.75
2022-11-08T04:00:22.537Z,96069.53
2022-11-08T04:02:49.398Z,96058.03
2022-11-08T04:05:16.417Z,96071.31
2022-11-08T04:07:43.650Z,96064.56
2022-11-08T04:10:11.780Z,96063.84
2022-11-08T04:13:02.354Z,96048.63
2022-11-08T04:15:31.557Z,96060.66
2022-11-08T04:18:17.433Z,96061.03
2022-11-08T04:21:05.632Z,96053.69
2022-11-08T04:23:33.755Z,96063.41
2022-11-08T04:26:02.055Z,96056.50
2022-11-08T04:28:31.390Z,96050.78
2022-11-08T04:31:07.424Z,96055.44
2022-11-08T04:33:34.282Z,96064.22
2022-11-08T04:36:04.344Z,96065.69
2022-11-08T04:38:32.038Z,96057.41
2022-11-08T04:41:20.958Z,96055.25
2022-11-08T04:43:47.926Z,96051.97
2022-11-08T04:46:16.815Z,96054.03
2022-11-08T04:48:44.461Z,96050.56
2022-11-08T04:51:22.874Z,96051.31
2022-11-08T04:53:50.285Z,96044.78
2022-11-08T04:56:21.518Z,96037.25
2022-11-08T04:58:53.692Z,96047.78
2022-11-08T05:01:26.099Z,96043.88
2022-11-08T05:03:54.539Z,96040.91
2022-11-08T05:06:23.775Z,96036.03
2022-11-08T05:08:50.648Z,96024.09
2022-11-08T05:11:20.158Z,96028.50
2022-11-08T05:13:47.514Z,96026.31
2022-11-08T05:16:18.403Z,96025.44
2022-11-08T05:18:45.138Z,96019.50
2022-11-08T05:21:32.571Z,96018.69
2022-11-08T05:23:59.946Z,96004.38
2022-11-08T05:26:27.265Z,96013.28
2022-11-08T05:28:54.460Z,96009.41
2022-11-08T05:31:21.526Z,96014.84
2022-11-08T05:33:48.174Z,96013.88
2022-11-08T05:36:15.626Z,96014.06
2022-11-08T05:38:43.287Z,96011.09
2022-11-08T05:41:17.738Z,96012.88
2022-11-08T05:43:49.549Z,96016.97
2022-11-08T05:46:17.193Z,96012.75
2022-11-08T05:48:44.104Z,96015.00
2022-11-08T05:51:12.905Z,96013.03
2022-11-08T05:53:40.178Z,96018.28
2022-11-08T05:56:07.618Z,96017.25
2022-11-08T05:58:36.061Z,96021.19
2022-11-08T06:01:14.317Z,96008.34
2022-11-08T06:03:41.807Z,96014.34
2022-11-08T06:06:14.259Z,96007.16
2022-11-08T06:08:42.493Z,96012.03
2022-11-08T06:11:14.513Z,96009.41
2022-11-08T06:13:41.404Z,96011.97
2022-11-08T06:16:10.617Z,96016.91
2022-11-08T06:18:38.302Z,96006.81
2022-11-08T06:21:06.709Z,96011.00
2022-11-08T06:23:34.093Z,96007.75
2022-11-08T06:26:00.860Z,96015.66
2022-11-08T06:28:28.110Z,96021.72
2022-11-08T06:30:54.600Z,96021.91
2022-11-08T06:33:21.793Z,96022.38
2022-11-08T06:35:48.733Z,96031.75
2022-11-08T06:38:15.041Z,96025.34
2022-11-08T06:40:41.418Z,96026.06
2022-11-08T06:43:08.193Z,96025.56
2022-11-08T06:45:36.940Z,96020.66
2022-11-08T06:48:05.690Z,96015.44
2022-11-08T06:50:33.125Z,96030.81
2022-11-08T06:53:04.839Z,96023.44
2022-11-08T06:55:32.183Z,96022.78
2022-11-08T06:57:58.768Z,96023.09
2022-11-08T07:00:26.083Z,96019.19
2022-11-08T07:02:57.576Z,96019.22
2022-11-08T07:05:24.768Z,96019.06
2022-11-08T07:07:54.570Z,96016.13
2022-11-08T07:10:23.388Z,96024.16
2022-11-08T07:12:59.387Z,96022.38
2022-11-08T07:15:25.700Z,96021.31
2022-11-08T07:17:52.080Z,96009.63
2022-11-08T07:20:18.901Z,96008.34
2022-11-08T07:22:45.270Z,96015.19
2022-11-08T07:25:11.582Z,96017.72
2022-11-08T07:27:38.308Z,96015.31
2022-11-08T07:30:05.942Z,96014.53
2022-11-08T07:32:32.269Z,96016.75
2022-11-08T07:34:58.970Z,96022.34
2022-11-08T07:37:25.302Z,96017.72
2022-11-08T07:39:51.615Z,96020.50
2022-11-08T07:42:18.320Z,96018.31
2022-11-08T07:44:45.314Z,96015.47
2022-11-08T07:47:11.637Z,96026.97
2022-11-08T07:49:37.981Z,96026.63
2022-11-08T07:52:04.911Z,96023.56
2022-11-08T07:54:31.215Z,96023.50
2022-11-08T07:56:57.541Z,96025.75
2022-11-08T07:59:24.259Z,96035.22
2022-11-08T08:01:50.806Z,96032.81
2022-11-08T08:04:17.163Z,96036.53
2022-11-08T08:06:43.964Z,96039.56
2022-11-08T08:09:10.394Z,96037.91
2022-11-08T08:11:36.742Z,96046.66
2022-11-08T08:14:03.478Z,96038.78
2022-11-08T08:16:30.270Z,96039.84
2022-11-08T08:18:57.493Z,96040.31
2022-11-08T08:21:23.862Z,96035.69
2022-11-08T08:23:50.298Z,96041.28
2022-11-08T08:26:17.114Z,96036.94
2022-11-08T08:28:43.458Z,96049.41
2022-11-08T08:31:09.802Z,96050.03
2022-11-08T08:33:38.299Z,96041.28
2022-11-08T08:36:05.466Z,96033.47
2022-11-08T08:38:33.958Z,96036.09
2022-11-08T08:41:01.414Z,96020.34
2022-11-08T08:43:29.037Z,96022.72
2022-11-08T08:48:45.675Z,96021.88
2022-11-08T08:51:12.635Z,96028.78
2022-11-08T08:53:39.035Z,96039.63
2022-11-08T08:56:06.737Z,96036.16
2022-11-08T08:58:33.598Z,96032.06
2022-11-08T09:03:51.206Z,96039.69
2022-11-08T09:06:18.326Z,96048.16
2022-11-08T09:08:44.666Z,96041.16
2022-11-08T09:11:10.977Z,96047.88
2022-11-08T09:13:37.621Z,96035.94
2022-11-08T09:16:04.169Z,96038.19
2022-11-08T09:18:31.619Z,96033.13
2022-11-08T09:20:58.903Z,96035.22
2022-11-08T09:23:25.950Z,96038.09
2022-11-08T09:26:04.382Z,96041.81
2022-11-08T09:28:32.179Z,96040.75
2022-11-08T09:31:03.534Z,96027.22
2022-11-08T09:33:30.524Z,96048.63
2022-11-08T09:35:59.394Z,96026.38
2022-11-08T09:38:25.711Z,96029.97
2022-11-08T09:41:05.657Z,96036.38
2022-11-08T09:43:34.966Z,96037.03
2022-11-08T09:46:01.662Z,96043.09
2022-11-08T09:48:35.587Z,96046.09
2022-11-08T09:51:23.672Z,96046.53
2022-11-08T09:53:55.270Z,96046.38
2022-11-08T09:56:21.542Z,96049.78
2022-11-08T09:59:02.033Z,96037.66
2022-11-08T10:01:34.053Z,96053.59
2022-11-08T10:04:06.824Z,96042.00
2022-11-08T10:06:36.133Z,96043.28
2022-11-08T10:09:34.136Z,96050.88
2022-11-08T10:12:11.234Z,96049.34
2022-11-08T10:14:54.624Z,96046.81
2022-11-08T10:17:42.615Z,96045.91
2022-11-08T10:20:23.386Z,96047.78
2022-11-08T10:22:49.671Z,96040.59
2022-11-08T10:25:45.338Z,96047.53
2022-11-08T10:28:16.332Z,96032.31
2022-11-08T10:30:48.237Z,96045.44
2022-11-08T10:33:22.459Z,96036.44
2022-11-08T10:36:19.785Z,96043.22
2022-11-08T10:38:52.024Z,96037.06
2022-11-08T10:41:33.981Z,96032.00
2022-11-08T10:44:27.079Z,96034.56
2022-11-08T10:46:56.571Z,96026.47
2022-11-08T10:49:26.501Z,96016.50
2022-11-08T10:51:58.770Z,96021.41
2022-11-08T10:54:52.361Z,96009.41
2022-11-08T10:57:27.965Z,96008.38
2022-11-08T10:59:56.540Z,96009.69
2022-11-08T11:02:33.800Z,96015.34
2022-11-08T11:05:18.598Z,96009.31
2022-11-08T11:08:00.643Z,96013.97
2022-11-08T11:10:39.904Z,95995.88
2022-11-08T11:13:18.753Z,96019.06
2022-11-08T11:15:52.738Z,96014.78
2022-11-08T11:18:24.945Z,96012.75
2022-11-08T11:21:11.794Z,96011.19
2022-11-08T11:23:55.136Z,96001.41
2022-11-08T11:26:34.152Z,96005.00
2022-11-08T11:29:09.592Z,95996.00
2022-11-08T11:31:38.436Z,96004.53
2022-11-08T11:34:17.455Z,95985.81
2022-11-08T11:36:46.412Z,95978.69
2022-11-08T11:39:23.165Z,95979.53
2022-11-08T11:41:58.178Z,95976.88
2022-11-08T11:45:03.867Z,95972.22
2022-11-08T11:47:57.392Z,95970.19
2022-11-08T11:50:35.314Z,95963.66
2022-11-08T11:53:12.262Z,95967.94
2022-11-08T11:55:44.331Z,95967.91
2022-11-08T11:58:29.623Z,95968.50
2022-11-08T12:01:02.507Z,95960.59
2022-11-08T12:03:57.815Z,95956.09
2022-11-08T12:06:32.492Z,95954.84
2022-11-08T12:09:16.174Z,95949.47
2022-11-08T12:11:53.082Z,95949.63
2022-11-08T12:14:25.818Z,95952.56
2022-11-08T12:17:20.453Z,95949.06
2022-11-08T12:19:59.242Z,95949.47
2022-11-08T12:22:51.755Z,95946.78
2022-11-08T12:25:32.564Z,95944.69
2022-11-08T12:29:03.115Z,95946.31
2022-11-08T12:31:34.295Z,95947.72
2022-11-08T12:34:23.836Z,95948.88
2022-11-08T12:37:10.452Z,95944.22
2022-11-08T12:39:45.342Z,95935.97
2022-11-08T12:42:43.258Z,95943.69
2022-11-08T12:45:29.239Z,95933.09
2022-11-08T12:48:17.462Z,95931.75
2022-11-08T12:51:12.913Z,95927.41
2022-11-08T12:53:59.352Z,95934.53
2022-11-08T12:56:34.516Z,95936.94
2022-11-08T12:59:02.086Z,95926.66
2022-11-08T13:01:29.288Z,95932.06
2022-11-08T13:04:15.513Z,95926.31
2022-11-08T13:06:54.108Z,95931.47
2022-11-08T13:09:31.987Z,95923.94
2022-11-08T13:12:35.079Z,95929.19
2022-11-08T13:15:02.250Z,95915.59
2022-11-08T13:17:29.804Z,95912.00
2022-11-08T13:20:06.279Z,95914.94
2022-11-08T13:22:32.547Z,95920.25
2022-11-08T13:25:05.917Z,95917.59
2022-11-08T13:27:37.269Z,95916.03
2022-11-08T13:30:14.049Z,95920.09
2022-11-08T13:32:43.365Z,95922.25
2022-11-08T13:35:24.942Z,95916.50
2022-11-08T13:38:16.472Z,95907.97
2022-11-08T13:41:12.347Z,95916.84
2022-11-08T13:43:39.113Z,95923.34
2022-11-08T13:46:23.068Z,95912.88
2022-11-08T13:48:58.720Z,95918.50
2022-11-08T13:51:36.604Z,95918.19
2022-11-08T13:54:21.030Z,95911.28
2022-11-08T13:56:56.021Z,95911.09
2022-11-08T13:59:31.603Z,95905.47
2022-11-08T14:01:58.742Z,95901.50
2022-11-08T14:04:31.301Z,95906.72
2022-11-08T14:07:13.367Z,95905.78
2022-11-08T14:09:45.527Z,95900.97
2022-11-08T14:12:23.968Z,95895.84
2022-11-08T14:14:56.962Z,95881.41
2022-11-08T14:17:29.331Z,95905.50
2022-11-08T14:19:59.096Z,95899.47
2022-11-08T14:22:30.642Z,95897.31
2022-11-08T14:25:30.725Z,95900.44
2022-11-08T14:27:58.815Z,95893.47
2022-11-08T14:30:25.819Z,95886.66
2022-11-08T14:33:16.957Z,95889.47
2022-11-08T14:35:52.042Z,95887.13
2022-11-08T14:38:18.895Z,95883.91
2022-11-08T14:40:54.111Z,95885.97
2022-11-08T14:43:22.142Z,95884.13
2022-11-08T14:45:49.182Z,95891.81
2022-11-08T14:48:27.782Z,95884.34
2022-11-08T14:51:01.946Z,95889.06
2022-11-08T14:53:30.125Z,95896.09
2022-11-08T14:56:19.082Z,95893.69
2022-11-08T14:58:47.786Z,95906.69
2022-11-08T15:01:16.661Z,95904.75
2022-11-08T15:03:53.515Z,95909.13
2022-11-08T15:06:20.803Z,95910.38
2022-11-08T15:08:49.399Z,95906.81
2022-11-08T15:11:29.241Z,95896.56
2022-11-08T15:14:01.890Z,95893.84
2022-11-08T15:16:37.562Z,95897.00
2022-11-08T15:19:39.521Z,95885.56
2022-11-08T15:22:43.909Z,95896.44
2022-11-08T15:25:28.005Z,95890.84
2022-11-08T15:28:12.397Z,95892.69
2022-11-08T15:30:43.007Z,95891.22
2022-11-08T15:33:22.902Z,95883.19
2022-11-08T15:35:49.979Z,95885.09
2022-11-08T15:38:35.729Z,95890.69
2022-11-08T15:41:06.224Z,95887.13
2022-11-08T15:43:32.529Z,95887.97
2022-11-08T15:46:01.661Z,95884.56
2022-11-08T15:48:28.622Z,95881.38
2022-11-08T15:50:56.784Z,95886.03
2022-11-08T15:53:24.774Z,95880.38
2022-11-08T15:55:53.146Z,95878.16
2022-11-08T15:58:25.240Z,95888.16
2022-11-08T16:00:51.633Z,95885.72
2022-11-08T16:03:18.537Z,95881.66
2022-11-08T16:05:44.894Z,95876.56
2022-11-08T16:08:15.608Z,95876.19
2022-11-08T16:10:48.494Z,95879.00
2022-11-08T16:13:23.730Z,95882.03
2022-11-08T16:15:50.313Z,95880.00
2022-11-08T16:18:19.809Z,95880.97
2022-11-08T16:20:46.829Z,95874.69
2022-11-08T16:23:14.346Z,95875.88
2022-11-08T16:25:43.706Z,95874.22
2022-11-08T16:28:28.979Z,95883.97
2022-11-08T16:30:55.546Z,95893.66
2022-11-08T16:33:27.663Z,95899.25
2022-11-08T16:35:55.760Z,95896.19
2022-11-08T16:38:28.838Z,95901.47
2022-11-08T16:40:56.729Z,95894.91
2022-11-08T16:43:23.623Z,95902.38
2022-11-08T16:46:04.981Z,95889.19
2022-11-08T16:48:32.922Z,95888.50
2022-11-08T16:51:05.088Z,95896.16
2022-11-08T16:53:32.331Z,95895.09
2022-11-08T16:55:59.620Z,95891.44
2022-11-08T16:58:27.812Z,95894.53
2022-11-08T17:00:54.522Z,95894.06
2022-11-08T17:03:24.773Z,95899.06
2022-11-08T17:05:52.211Z,95902.53
2022-11-08T17:08:19.097Z,95907.97
2022-11-08T17:10:46.315Z,95912.38
2022-11-08T17:13:15.242Z,95915.97
2022-11-08T17:15:42.382Z,95916.34
2022-11-08T17:18:11.945Z,95914.66
2022-11-08T17:20:38.340Z,95911.53
2022-11-08T17:23:05.159Z,95915.78
2022-11-08T17:25:32.260Z,95919.59
2022-11-08T17:27:58.619Z,95920.00
2022-11-08T17:30:26.890Z,95917.34
2022-11-08T17:32:54.381Z,95916.13
2022-11-08T17:35:20.954Z,95913.16
2022-11-08T17:37:47.338Z,95923.28
2022-11-08T17:40:14.308Z,95920.75
2022-11-08T17:42:40.985Z,95915.13
2022-11-08T17:45:10.944Z,95919.97
2022-11-08T17:47:38.009Z,95921.78
2022-11-08T17:50:06.162Z,95920.78
2022-11-08T17:52:32.798Z,95917.41
2022-11-08T17:54:59.874Z,95922.88
2022-11-08T17:57:26.230Z,95919.06
2022-11-08T17:59:52.690Z,95909.91
2022-11-08T18:02:19.654Z,95914.38
2022-11-08T18:04:46.050Z,95910.38
2022-11-08T18:07:12.578Z,95915.34
2022-11-08T18:09:39.998Z,95919.19
2022-11-08T18:12:06.353Z,95918.19
2022-11-08T18:14:32.795Z,95923.16
2022-11-08T18:17:00.382Z,95924.22
2022-11-08T18:19:26.806Z,95922.63
2022-11-08T18:21:53.289Z,95926.56
2022-11-08T18:24:20.582Z,95926.47
2022-11-08T18:26:46.941Z,95920.78
2022-11-08T18:29:13.245Z,95917.13
2022-11-08T18:31:39.990Z,95910.56
2022-11-08T18:34:06.318Z,95909.09
2022-11-08T18:36:32.780Z,95915.53
2022-11-08T18:39:00.809Z,95922.03
2022-11-08T18:41:30.290Z,95930.38
2022-11-08T18:43:58.689Z,95936.47
2022-11-08T18:46:26.913Z,95919.38
2022-11-08T18:48:54.571Z,95926.19
2022-11-08T18:51:22.618Z,95933.97
2022-11-08T18:53:49.227Z,95924.38
2022-11-08T18:56:16.473Z,95919.59
2022-11-08T18:58:44.637Z,95925.94
2022-11-08T19:01:11.475Z,95925.41
2022-11-08T19:03:38.582Z,95921.53
2022-11-08T19:06:05.437Z,95921.81
2022-11-08T19:08:32.709Z,95916.38
2022-11-08T19:11:08.396Z,95916.19
2022-11-08T19:13:36.875Z,95917.53
2022-11-08T19:16:10.121Z,95919.22
2022-11-08T19:18:37.529Z,95918.78
2022-11-08T19:21:09.614Z,95917.81
2022-11-08T19:23:38.382Z,95920.28
2022-11-08T19:26:11.485Z,95907.75
2022-11-08T19:28:40.919Z,95912.47
2022-11-08T19:31:07.450Z,95911.47
2022-11-08T19:33:34.565Z,95915.66
2022-11-08T19:36:03.177Z,95907.66
2022-11-08T19:38:33.034Z,95907.47
2022-11-08T19:41:04.802Z,95911.72
2022-11-08T19:43:34.250Z,95908.84
2022-11-08T19:46:03.303Z,95899.94
2022-11-08T19:48:32.606Z,95887.97
2022-11-08T19:51:03.387Z,95891.06
2022-11-08T19:53:30.263Z,95888.44
2022-11-08T19:56:01.448Z,95888.78
2022-11-08T19:58:28.247Z,95893.47
2022-11-08T20:00:54.916Z,95910.06
2022-11-08T20:03:21.742Z,95911.34
2022-11-08T20:05:52.175Z,95905.75
2022-11-08T20:08:19.968Z,95903.66
2022-11-08T20:10:47.767Z,95911.41
2022-11-08T20:13:14.111Z,95919.66
2022-11-08T20:15:40.501Z,95922.97
2022-11-08T20:18:07.251Z,95920.63
2022-11-08T20:20:33.990Z,95912.59
2022-11-08T20:23:00.408Z,95908.13
2022-11-08T20:25:26.825Z,95916.19
2022-11-08T20:27:53.534Z,95913.75
2022-11-08T20:30:19.843Z,95914.53
2022-11-08T20:32:46.974Z,95912.88
2022-11-08T20:35:19.082Z,95923.91
2022-11-08T20:37:49.403Z,95924.94
2022-11-08T20:40:16.471Z,95907.88
2022-11-08T20:42:42.817Z,95909.88
2022-11-08T20:45:14.660Z,95908.16
2022-11-08T20:47:41.968Z,95907.59
2022-11-08T20:50:09.737Z,95915.66
2022-11-08T20:52:36.069Z,95918.47
2022-11-08T20:55:02.833Z,95926.00
2022-11-08T20:57:29.158Z,95918.22
2022-11-08T20:59:55.478Z,95915.53
2022-11-08T21:02:22.593Z,95917.34
2022-11-08T21:04:48.923Z,95917.91
2022-11-08T21:10:27.535Z,95918.53
2022-11-08T21:12:48.755Z,95922.00
2022-11-08T21:15:15.808Z,95923.63
2022-11-08T21:17:42.125Z,95919.91
2022-11-08T21:20:08.985Z,95917.38
2022-11-08T21:22:35.686Z,95929.78
2022-11-08T21:25:01.995Z,95923.91
2022-11-08T21:27:29.901Z,95914.63
2022-11-08T21:29:56.917Z,95911.81
2022-11-08T21:32:23.225Z,95904.66
2022-11-08T21:34:49.566Z,95894.25
2022-11-08T21:37:17.107Z,95906.38
2022-11-08T21:39:43.507Z,95904.00
2022-11-08T21:42:10.466Z,95892.84
2022-11-08T21:44:36.778Z,95892.38
2022-11-08T21:47:03.138Z,95898.84
2022-11-08T21:49:29.877Z,95903.63
2022-11-08T21:51:56.190Z,95898.09
2022-11-08T21:54:22.795Z,95894.09
2022-11-08T21:56:49.726Z,95886.75
2022-11-08T21:59:16.098Z,95894.84
2022-11-08T22:01:42.510Z,95906.19
2022-11-08T22:04:09.412Z,95900.94
2022-11-08T22:06:36.281Z,95908.91
2022-11-08T22:09:02.821Z,95898.94
2022-11-08T22:11:29.607Z,95907.75
2022-11-08T22:13:55.924Z,95905.09
2022-11-08T22:16:22.307Z,95903.69
2022-11-08T22:19:05.780Z,95912.38
2022-11-08T22:21:39.231Z,95906.06
2022-11-08T22:24:11.409Z,95902.19
2022-11-08T22:26:38.552Z,95898.66
2022-11-08T22:29:05.230Z,95891.03
2022-11-08T22:31:32.125Z,95898.22
2022-11-08T22:33:58.662Z,95891.50
2022-11-08T22:36:25.656Z,95896.13
2022-11-08T22:38:51.982Z,95898.78
2022-11-08T22:41:19.651Z,95902.03
2022-11-08T22:43:47.422Z,95898.59
2022-11-08T22:46:14.484Z,95896.34
2022-11-08T22:48:41.007Z,95893.69
2022-11-08T22:51:08.379Z,95887.34
2022-11-08T22:53:34.946Z,95892.06
2022-11-08T22:56:03.555Z,95890.50
2022-11-08T22:58:34.275Z,95889.31
2022-11-08T23:01:00.716Z,95899.88
2022-11-08T23:03:27.328Z,95896.59
2022-11-08T23:05:56.817Z,95899.75
2022-11-08T23:08:25.585Z,95900.75
2022-11-08T23:11:11.948Z,95900.47
2022-11-08T23:13:57.742Z,95903.34
2022-11-08T23:16:34.489Z,95901.81
2022-11-08T23:19:40.075Z,95888.97
2022-11-08T23:22:29.469Z,95883.69
2022-11-08T23:24:56.618Z,95897.53
2022-11-08T23:27:42.616Z,95894.44
2022-11-08T23:30:32.322Z,95895.50
2022-11-08T23:32:58.960Z,95892.63
2022-11-08T23:35:25.331Z,95882.72
2022-11-08T23:37:52.438Z,95885.09
2022-11-08T23:40:38.326Z,95874.38
2022-11-08T23:43:32.118Z,95871.09
2022-11-08T23:46:04.918Z,95871.84
2022-11-08T23:48:31.274Z,95861.63
2022-11-08T23:50:57.910Z,95868.44
2022-11-08T23:53:27.470Z,95878.31
2022-11-08T23:55:54.316Z,95869.69
2022-11-08T23:58:21.852Z,95871.78
